Toronto Pearson, Ontario

8:51 AM EST on March 06, 2015 (GMT -0500)
Toronto-Pearson International | Change Station
CLOSE
Current Station
Airport
Location: Toronto Pearson,
Elevation: 568 ft
Nearby Weather Stations

Elev 568 ft 43.68 °N, 79.63 °W | Updated 51 minutes ago

Partly Cloudy
Partly Cloudy
7 °F
Feels Like -9 °F
N
12
Wind Variable Wind from WSW

Today is forecast to be nearly the same temperature as yesterday.

Today
High -- | Low -- °F
--% Chance of Precip.
Yesterday
High -- | Low -- °F
Precip. -- in
6:46 AM 6:13 PM
Waxing Gibbous, 99% visible
Pressure 30.52 in
Visibility 15.0 miles
Clouds Few 2500 ft
Windchill -9 °F
Dew Point -2 °F
Humidity 67%
Rainfall 0.00 in
Snow Depth Not available.
UV 1 out of 12
Pollen Not available.
Air Quality Not available.
Flu Activity Not available.
METAR CYYZ 061300Z 24010KT 15SM FEW025 M14/M19 A3048 RMK SC1 SC TR SLP335

More Conditions Fewer Conditions

Pressure 30.52 in
Visibility 15.0 miles
Clouds Few 2500 ft
Windchill -9 °F
Dew Point -2 °F
Humidity 67%
Rainfall 0.00 in
Snow Depth Not available.
UV 1 out of 12
Pollen Not available.
Air Quality Not available.
Flu Activity Not available.
METAR CYYZ 061300Z 24010KT 15SM FEW025 M14/M19 A3048 RMK SC1 SC TR SLP335

More Conditions Fewer Conditions

10-Day Weather Forecast

Almanac

Astronomy

Mar. 06, 2015 Rise Set
Actual Time
Civil Twilight
Nautical Twilight
Astronomical Twilight
Moon
Length of Visible Light
Length of Day
Tomorrow will be .
, % of the Moon is Illuminated

Today's Extremes

Country Highs Country Lows

Community

WunderPhotos

Upload Photos

1,803,266 photos uploaded!

WunderBlogs® & News

Nearby

Air Quality

  Air Quality AQ Index Pollutant
Not available.

Snow Depth

Station Depth Elevation

Earthquake Activity

City Distance Mag. Time & Date
Minimum magnitude displayed is 2.5.

Coastal Water Temperatures

Place Temperature

Nearby Weather Stations